sensor_id;sensor_type;location;lat;lon;timestamp;pressure;altitude;pressure_sealevel;temperature
20730;BMP280;10526;50.850;12.928;2023-04-12T00:00:13;97560.38;;;0.71
20730;BMP280;10526;50.850;12.928;2023-04-12T00:04:35;97553.22;;;0.56
20730;BMP280;10526;50.850;12.928;2023-04-12T00:08:59;97544.31;;;0.44
20730;BMP280;10526;50.850;12.928;2023-04-12T00:13:21;97528.28;;;0.34
20730;BMP280;10526;50.850;12.928;2023-04-12T00:17:43;97525.94;;;0.29
20730;BMP280;10526;50.850;12.928;2023-04-12T00:22:17;97514.16;;;0.22
20730;BMP280;10526;50.850;12.928;2023-04-12T00:26:39;97516.38;;;0.08
20730;BMP280;10526;50.850;12.928;2023-04-12T00:31:01;97517.16;;;-0.04
20730;BMP280;10526;50.850;12.928;2023-04-12T00:35:23;97504.63;;;-0.10
20730;BMP280;10526;50.850;12.928;2023-04-12T00:39:45;97498.06;;;-0.16
20730;BMP280;10526;50.850;12.928;2023-04-12T00:44:07;97493.28;;;-0.14
20730;BMP280;10526;50.850;12.928;2023-04-12T00:48:30;97480.97;;;-0.14
20730;BMP280;10526;50.850;12.928;2023-04-12T00:52:53;97490.88;;;-0.07
20730;BMP280;10526;50.850;12.928;2023-04-12T00:57:16;97480.31;;;-0.11
20730;BMP280;10526;50.850;12.928;2023-04-12T01:01:38;97480.34;;;-0.23
20730;BMP280;10526;50.850;12.928;2023-04-12T01:11:11;97472.78;;;-0.37
20730;BMP280;10526;50.850;12.928;2023-04-12T01:15:45;97464.94;;;-0.37
20730;BMP280;10526;50.850;12.928;2023-04-12T01:20:32;97468.19;;;-0.40
20730;BMP280;10526;50.850;12.928;2023-04-12T01:29:30;97450.44;;;-0.59
20730;BMP280;10526;50.850;12.928;2023-04-12T01:33:53;97443.59;;;-0.63
20730;BMP280;10526;50.850;12.928;2023-04-12T01:38:18;97424.16;;;-0.50
20730;BMP280;10526;50.850;12.928;2023-04-12T01:42:41;97410.25;;;-0.42
20730;BMP280;10526;50.850;12.928;2023-04-12T01:47:03;97412.84;;;-0.42
20730;BMP280;10526;50.850;12.928;2023-04-12T01:52:08;97400.56;;;-0.54
20730;BMP280;10526;50.850;12.928;2023-04-12T01:56:33;97396.41;;;-0.67
20730;BMP280;10526;50.850;12.928;2023-04-12T02:01:01;97400.44;;;-0.69
20730;BMP280;10526;50.850;12.928;2023-04-12T02:05:24;97402.63;;;-0.71
20730;BMP280;10526;50.850;12.928;2023-04-12T02:09:46;97405.47;;;-0.77
20730;BMP280;10526;50.850;12.928;2023-04-12T02:14:14;97392.19;;;-0.84
20730;BMP280;10526;50.850;12.928;2023-04-12T02:18:37;97404.91;;;-0.82
20730;BMP280;10526;50.850;12.928;2023-04-12T02:23:04;97393.25;;;-0.85
20730;BMP280;10526;50.850;12.928;2023-04-12T02:27:27;97383.03;;;-0.90
20730;BMP280;10526;50.850;12.928;2023-04-12T02:31:49;97372.78;;;-0.83
20730;BMP280;10526;50.850;12.928;2023-04-12T02:36:13;97379.53;;;-0.82
20730;BMP280;10526;50.850;12.928;2023-04-12T02:40:39;97372.16;;;-0.80
20730;BMP280;10526;50.850;12.928;2023-04-12T02:45:08;97357.88;;;-0.82
20730;BMP280;10526;50.850;12.928;2023-04-12T02:49:30;97348.81;;;-0.85
20730;BMP280;10526;50.850;12.928;2023-04-12T02:53:53;97351.88;;;-0.83
20730;BMP280;10526;50.850;12.928;2023-04-12T02:58:19;97340.66;;;-0.83
20730;BMP280;10526;50.850;12.928;2023-04-12T03:02:44;97340.78;;;-0.80
20730;BMP280;10526;50.850;12.928;2023-04-12T03:07:17;97327.81;;;-0.76
20730;BMP280;10526;50.850;12.928;2023-04-12T03:11:45;97322.16;;;-0.78
20730;BMP280;10526;50.850;12.928;2023-04-12T03:16:23;97311.59;;;-0.82
20730;BMP280;10526;50.850;12.928;2023-04-12T03:20:54;97307.91;;;-0.81
20730;BMP280;10526;50.850;12.928;2023-04-12T03:25:18;97302.75;;;-0.77
20730;BMP280;10526;50.850;12.928;2023-04-12T03:29:47;97298.09;;;-0.84
20730;BMP280;10526;50.850;12.928;2023-04-12T03:34:12;97301.59;;;-0.92
20730;BMP280;10526;50.850;12.928;2023-04-12T03:38:38;97291.69;;;-0.99
20730;BMP280;10526;50.850;12.928;2023-04-12T03:43:04;97285.50;;;-1.06
20730;BMP280;10526;50.850;12.928;2023-04-12T03:47:26;97278.41;;;-1.06
20730;BMP280;10526;50.850;12.928;2023-04-12T03:51:49;97286.47;;;-1.11
20730;BMP280;10526;50.850;12.928;2023-04-12T03:56:13;97273.09;;;-1.22
20730;BMP280;10526;50.850;12.928;2023-04-12T04:00:38;97270.03;;;-1.24
20730;BMP280;10526;50.850;12.928;2023-04-12T04:05:02;97273.84;;;-1.21
20730;BMP280;10526;50.850;12.928;2023-04-12T04:09:26;97265.69;;;-1.19
20730;BMP280;10526;50.850;12.928;2023-04-12T04:13:48;97262.84;;;-1.02
20730;BMP280;10526;50.850;12.928;2023-04-12T04:18:13;97249.09;;;-0.87
20730;BMP280;10526;50.850;12.928;2023-04-12T04:22:36;97241.31;;;-0.71
20730;BMP280;10526;50.850;12.928;2023-04-12T04:26:59;97246.47;;;-0.46
20730;BMP280;10526;50.850;12.928;2023-04-12T04:31:21;97243.53;;;-0.17
20730;BMP280;10526;50.850;12.928;2023-04-12T04:35:47;97257.41;;;0.15
20730;BMP280;10526;50.850;12.928;2023-04-12T04:40:31;97251.63;;;0.57
20730;BMP280;10526;50.850;12.928;2023-04-12T04:44:55;97246.19;;;1.56
20730;BMP280;10526;50.850;12.928;2023-04-12T04:49:30;97239.09;;;3.38
20730;BMP280;10526;50.850;12.928;2023-04-12T04:53:58;97229.81;;;5.27
20730;BMP280;10526;50.850;12.928;2023-04-12T04:58:21;97230.50;;;6.71
20730;BMP280;10526;50.850;12.928;2023-04-12T05:02:43;97224.91;;;8.59
20730;BMP280;10526;50.850;12.928;2023-04-12T05:07:12;97222.81;;;10.61
20730;BMP280;10526;50.850;12.928;2023-04-12T05:11:38;97224.41;;;12.05
20730;BMP280;10526;50.850;12.928;2023-04-12T05:16:08;97218.28;;;13.35
20730;BMP280;10526;50.850;12.928;2023-04-12T05:20:30;97215.56;;;14.26
20730;BMP280;10526;50.850;12.928;2023-04-12T05:24:52;97227.72;;;13.96
20730;BMP280;10526;50.850;12.928;2023-04-12T05:29:15;97211.38;;;13.25
20730;BMP280;10526;50.850;12.928;2023-04-12T05:33:39;97216.66;;;12.65
20730;BMP280;10526;50.850;12.928;2023-04-12T05:38:01;97206.03;;;12.36
20730;BMP280;10526;50.850;12.928;2023-04-12T05:42:23;97199.72;;;12.30
20730;BMP280;10526;50.850;12.928;2023-04-12T05:46:45;97183.34;;;11.57
20730;BMP280;10526;50.850;12.928;2023-04-12T05:51:09;97187.94;;;11.24
20730;BMP280;10526;50.850;12.928;2023-04-12T05:55:31;97181.84;;;11.85
20730;BMP280;10526;50.850;12.928;2023-04-12T05:59:54;97173.28;;;11.94
20730;BMP280;10526;50.850;12.928;2023-04-12T06:04:17;97155.53;;;12.00
20730;BMP280;10526;50.850;12.928;2023-04-12T06:08:39;97153.31;;;11.69
20730;BMP280;10526;50.850;12.928;2023-04-12T06:13:02;97146.19;;;11.50
20730;BMP280;10526;50.850;12.928;2023-04-12T06:17:24;97138.59;;;11.19
20730;BMP280;10526;50.850;12.928;2023-04-12T06:21:47;97135.63;;;11.75
20730;BMP280;10526;50.850;12.928;2023-04-12T06:26:09;97125.09;;;11.85
20730;BMP280;10526;50.850;12.928;2023-04-12T06:30:32;97125.41;;;12.79
20730;BMP280;10526;50.850;12.928;2023-04-12T06:34:55;97121.47;;;13.40
20730;BMP280;10526;50.850;12.928;2023-04-12T06:39:17;97123.63;;;14.88
20730;BMP280;10526;50.850;12.928;2023-04-12T06:43:39;97113.09;;;15.30
20730;BMP280;10526;50.850;12.928;2023-04-12T06:48:01;97107.91;;;15.08
20730;BMP280;10526;50.850;12.928;2023-04-12T06:52:23;97115.88;;;14.72
20730;BMP280;10526;50.850;12.928;2023-04-12T06:56:49;97103.28;;;14.41
20730;BMP280;10526;50.850;12.928;2023-04-12T07:01:11;97103.41;;;14.87
20730;BMP280;10526;50.850;12.928;2023-04-12T07:05:38;97101.16;;;16.34
20730;BMP280;10526;50.850;12.928;2023-04-12T07:10:00;97096.63;;;17.12
20730;BMP280;10526;50.850;12.928;2023-04-12T07:14:24;97104.28;;;18.83
20730;BMP280;10526;50.850;12.928;2023-04-12T07:18:46;97084.44;;;19.69
20730;BMP280;10526;50.850;12.928;2023-04-12T07:23:09;97082.78;;;21.24
20730;BMP280;10526;50.850;12.928;2023-04-12T07:27:31;97069.94;;;22.80
20730;BMP280;10526;50.850;12.928;2023-04-12T07:31:53;97069.06;;;22.66
20730;BMP280;10526;50.850;12.928;2023-04-12T07:36:16;97062.41;;;22.15
20730;BMP280;10526;50.850;12.928;2023-04-12T07:40:42;97051.94;;;23.12
20730;BMP280;10526;50.850;12.928;2023-04-12T07:45:04;97042.44;;;23.24
20730;BMP280;10526;50.850;12.928;2023-04-12T07:49:27;97030.03;;;23.05
20730;BMP280;10526;50.850;12.928;2023-04-12T07:53:49;97022.97;;;24.07
20730;BMP280;10526;50.850;12.928;2023-04-12T07:58:12;97019.13;;;25.56
20730;BMP280;10526;50.850;12.928;2023-04-12T08:02:35;97025.13;;;26.02
20730;BMP280;10526;50.850;12.928;2023-04-12T08:06:58;96999.03;;;26.14
20730;BMP280;10526;50.850;12.928;2023-04-12T08:11:19;97000.81;;;24.99
20730;BMP280;10526;50.850;12.928;2023-04-12T08:15:42;96998.84;;;25.12
20730;BMP280;10526;50.850;12.928;2023-04-12T08:20:10;96986.81;;;25.21
20730;BMP280;10526;50.850;12.928;2023-04-12T08:24:33;96981.56;;;24.51
20730;BMP280;10526;50.850;12.928;2023-04-12T08:28:55;96967.91;;;21.72
20730;BMP280;10526;50.850;12.928;2023-04-12T08:33:18;96969.97;;;20.21
20730;BMP280;10526;50.850;12.928;2023-04-12T08:37:40;96962.13;;;19.69
20730;BMP280;10526;50.850;12.928;2023-04-12T08:42:03;96959.22;;;20.71
20730;BMP280;10526;50.850;12.928;2023-04-12T08:46:25;96952.81;;;21.93
20730;BMP280;10526;50.850;12.928;2023-04-12T08:50:50;96945.03;;;21.62
20730;BMP280;10526;50.850;12.928;2023-04-12T08:55:13;96947.81;;;20.28
20730;BMP280;10526;50.850;12.928;2023-04-12T08:59:41;96947.19;;;19.85
20730;BMP280;10526;50.850;12.928;2023-04-12T09:04:08;96944.34;;;20.11
20730;BMP280;10526;50.850;12.928;2023-04-12T09:08:30;96922.06;;;20.77
20730;BMP280;10526;50.850;12.928;2023-04-12T09:12:52;96911.78;;;19.71
20730;BMP280;10526;50.850;12.928;2023-04-12T09:17:26;96919.88;;;19.66
20730;BMP280;10526;50.850;12.928;2023-04-12T09:21:54;96909.41;;;18.68
20730;BMP280;10526;50.850;12.928;2023-04-12T09:26:27;96904.00;;;18.16
20730;BMP280;10526;50.850;12.928;2023-04-12T09:30:54;96903.44;;;19.21
20730;BMP280;10526;50.850;12.928;2023-04-12T09:35:17;96901.78;;;19.29
20730;BMP280;10526;50.850;12.928;2023-04-12T09:39:39;96890.16;;;19.18
20730;BMP280;10526;50.850;12.928;2023-04-12T09:44:01;96882.13;;;18.08
20730;BMP280;10526;50.850;12.928;2023-04-12T09:48:23;96864.94;;;18.83
20730;BMP280;10526;50.850;12.928;2023-04-12T09:52:47;96860.63;;;18.71
20730;BMP280;10526;50.850;12.928;2023-04-12T09:57:10;96850.25;;;18.27
20730;BMP280;10526;50.850;12.928;2023-04-12T10:01:38;96868.84;;;17.58
20730;BMP280;10526;50.850;12.928;2023-04-12T10:06:02;96839.06;;;18.71
20730;BMP280;10526;50.850;12.928;2023-04-12T10:10:25;96829.84;;;19.32
20730;BMP280;10526;50.850;12.928;2023-04-12T10:14:48;96833.59;;;18.92
20730;BMP280;10526;50.850;12.928;2023-04-12T10:19:12;96819.38;;;18.02
20730;BMP280;10526;50.850;12.928;2023-04-12T10:23:35;96810.34;;;17.59
20730;BMP280;10526;50.850;12.928;2023-04-12T10:28:20;96788.41;;;17.05
20730;BMP280;10526;50.850;12.928;2023-04-12T10:32:45;96792.50;;;18.08
20730;BMP280;10526;50.850;12.928;2023-04-12T10:37:08;96774.88;;;18.44
20730;BMP280;10526;50.850;12.928;2023-04-12T10:41:31;96774.88;;;18.44
20730;BMP280;10526;50.850;12.928;2023-04-12T10:45:54;96766.25;;;17.36
20730;BMP280;10526;50.850;12.928;2023-04-12T10:50:24;96758.38;;;18.31
20730;BMP280;10526;50.850;12.928;2023-04-12T10:54:51;96746.84;;;19.10
20730;BMP280;10526;50.850;12.928;2023-04-12T10:59:14;96754.53;;;18.80
20730;BMP280;10526;50.850;12.928;2023-04-12T11:04:15;96733.94;;;16.75
20730;BMP280;10526;50.850;12.928;2023-04-12T11:08:45;96730.84;;;16.62
20730;BMP280;10526;50.850;12.928;2023-04-12T11:13:18;96728.41;;;16.64
20730;BMP280;10526;50.850;12.928;2023-04-12T11:17:41;96715.09;;;16.75
20730;BMP280;10526;50.850;12.928;2023-04-12T11:22:05;96701.06;;;16.01
20730;BMP280;10526;50.850;12.928;2023-04-12T11:26:30;96692.50;;;15.58
20730;BMP280;10526;50.850;12.928;2023-04-12T11:30:53;96694.19;;;15.56
20730;BMP280;10526;50.850;12.928;2023-04-12T11:35:16;96679.84;;;15.73
20730;BMP280;10526;50.850;12.928;2023-04-12T11:39:43;96681.38;;;15.89
20730;BMP280;10526;50.850;12.928;2023-04-12T11:44:05;96674.22;;;16.16
20730;BMP280;10526;50.850;12.928;2023-04-12T11:48:28;96664.03;;;15.90
20730;BMP280;10526;50.850;12.928;2023-04-12T11:52:50;96668.91;;;16.21
20730;BMP280;10526;50.850;12.928;2023-04-12T11:57:17;96648.28;;;16.13
20730;BMP280;10526;50.850;12.928;2023-04-12T12:01:40;96643.84;;;15.95
20730;BMP280;10526;50.850;12.928;2023-04-12T12:06:03;96648.84;;;15.87
20730;BMP280;10526;50.850;12.928;2023-04-12T12:10:26;96632.44;;;15.41
20730;BMP280;10526;50.850;12.928;2023-04-12T12:15:07;96635.75;;;14.73
20730;BMP280;10526;50.850;12.928;2023-04-12T12:19:32;96639.59;;;14.48
20730;BMP280;10526;50.850;12.928;2023-04-12T12:23:55;96633.47;;;14.57
20730;BMP280;10526;50.850;12.928;2023-04-12T12:28:18;96635.06;;;14.30
20730;BMP280;10526;50.850;12.928;2023-04-12T12:32:44;96637.09;;;14.02
20730;BMP280;10526;50.850;12.928;2023-04-12T12:37:08;96615.59;;;13.78
20730;BMP280;10526;50.850;12.928;2023-04-12T12:41:32;96624.38;;;13.15
20730;BMP280;10526;50.850;12.928;2023-04-12T12:45:53;96621.44;;;12.54
20730;BMP280;10526;50.850;12.928;2023-04-12T12:50:22;96632.19;;;12.32
20730;BMP280;10526;50.850;12.928;2023-04-12T12:54:45;96628.31;;;12.24
20730;BMP280;10526;50.850;12.928;2023-04-12T12:59:07;96634.88;;;12.01
20730;BMP280;10526;50.850;12.928;2023-04-12T13:03:30;96632.47;;;11.38
20730;BMP280;10526;50.850;12.928;2023-04-12T13:07:52;96608.13;;;11.14
20730;BMP280;10526;50.850;12.928;2023-04-12T13:12:14;96609.09;;;11.07
20730;BMP280;10526;50.850;12.928;2023-04-12T13:16:36;96609.03;;;10.98
20730;BMP280;10526;50.850;12.928;2023-04-12T13:20:58;96601.34;;;10.75
20730;BMP280;10526;50.850;12.928;2023-04-12T13:25:21;96585.09;;;10.34
20730;BMP280;10526;50.850;12.928;2023-04-12T13:29:45;96585.09;;;10.34
20730;BMP280;10526;50.850;12.928;2023-04-12T13:34:07;96571.59;;;10.54
20730;BMP280;10526;50.850;12.928;2023-04-12T13:38:29;96573.81;;;10.69
20730;BMP280;10526;50.850;12.928;2023-04-12T13:42:51;96559.56;;;10.37
20730;BMP280;10526;50.850;12.928;2023-04-12T13:47:14;96564.56;;;10.35
20730;BMP280;10526;50.850;12.928;2023-04-12T13:51:36;96562.03;;;10.31
20730;BMP280;10526;50.850;12.928;2023-04-12T13:55:58;96559.66;;;10.08
20730;BMP280;10526;50.850;12.928;2023-04-12T14:00:21;96559.84;;;9.88
20730;BMP280;10526;50.850;12.928;2023-04-12T14:04:51;96551.50;;;9.44
20730;BMP280;10526;50.850;12.928;2023-04-12T14:09:31;96549.28;;;9.14
20730;BMP280;10526;50.850;12.928;2023-04-12T14:13:53;96542.66;;;8.89
20730;BMP280;10526;50.850;12.928;2023-04-12T14:18:15;96550.38;;;8.84
20730;BMP280;10526;50.850;12.928;2023-04-12T14:22:37;96548.38;;;8.88
20730;BMP280;10526;50.850;12.928;2023-04-12T14:26:59;96528.81;;;8.82
20730;BMP280;10526;50.850;12.928;2023-04-12T14:31:23;96533.91;;;8.76
20730;BMP280;10526;50.850;12.928;2023-04-12T14:35:45;96523.28;;;8.76
20730;BMP280;10526;50.850;12.928;2023-04-12T14:40:07;96514.78;;;8.81
20730;BMP280;10526;50.850;12.928;2023-04-12T14:44:30;96513.38;;;8.77
20730;BMP280;10526;50.850;12.928;2023-04-12T14:48:52;96515.31;;;8.76
20730;BMP280;10526;50.850;12.928;2023-04-12T14:53:14;96518.19;;;8.82
20730;BMP280;10526;50.850;12.928;2023-04-12T14:57:38;96523.44;;;8.85
20730;BMP280;10526;50.850;12.928;2023-04-12T15:02:01;96519.78;;;8.95
20730;BMP280;10526;50.850;12.928;2023-04-12T15:06:23;96505.97;;;9.00
20730;BMP280;10526;50.850;12.928;2023-04-12T15:10:51;96508.59;;;9.17
20730;BMP280;10526;50.850;12.928;2023-04-12T15:15:13;96491.22;;;9.28
20730;BMP280;10526;50.850;12.928;2023-04-12T15:19:36;96505.66;;;9.27
20730;BMP280;10526;50.850;12.928;2023-04-12T15:23:58;96501.50;;;9.14
20730;BMP280;10526;50.850;12.928;2023-04-12T15:28:20;96499.25;;;9.12
20730;BMP280;10526;50.850;12.928;2023-04-12T15:32:43;96492.00;;;9.13
20730;BMP280;10526;50.850;12.928;2023-04-12T15:37:07;96489.25;;;9.16
20730;BMP280;10526;50.850;12.928;2023-04-12T15:41:36;96487.97;;;9.37
20730;BMP280;10526;50.850;12.928;2023-04-12T15:45:58;96476.88;;;9.68
20730;BMP280;10526;50.850;12.928;2023-04-12T15:50:22;96470.63;;;9.87
20730;BMP280;10526;50.850;12.928;2023-04-12T15:54:45;96469.13;;;9.99
20730;BMP280;10526;50.850;12.928;2023-04-12T15:59:07;96464.88;;;10.14
20730;BMP280;10526;50.850;12.928;2023-04-12T16:03:30;96449.56;;;10.18
20730;BMP280;10526;50.850;12.928;2023-04-12T16:07:53;96435.72;;;10.23
20730;BMP280;10526;50.850;12.928;2023-04-12T16:12:15;96426.03;;;10.29
20730;BMP280;10526;50.850;12.928;2023-04-12T16:16:37;96426.53;;;10.37
20730;BMP280;10526;50.850;12.928;2023-04-12T16:21:02;96430.03;;;10.47
20730;BMP280;10526;50.850;12.928;2023-04-12T16:25:26;96417.25;;;10.42
20730;BMP280;10526;50.850;12.928;2023-04-12T16:29:48;96419.41;;;10.34
20730;BMP280;10526;50.850;12.928;2023-04-12T16:34:10;96415.00;;;10.40
20730;BMP280;10526;50.850;12.928;2023-04-12T16:38:33;96397.13;;;10.53
20730;BMP280;10526;50.850;12.928;2023-04-12T16:42:55;96392.53;;;10.54
20730;BMP280;10526;50.850;12.928;2023-04-12T16:47:19;96401.59;;;10.56
20730;BMP280;10526;50.850;12.928;2023-04-12T16:51:42;96395.69;;;10.61
20730;BMP280;10526;50.850;12.928;2023-04-12T16:56:05;96385.44;;;10.73
20730;BMP280;10526;50.850;12.928;2023-04-12T17:00:27;96379.88;;;10.80
20730;BMP280;10526;50.850;12.928;2023-04-12T17:04:49;96386.38;;;10.79
20730;BMP280;10526;50.850;12.928;2023-04-12T17:09:12;96391.31;;;10.68
20730;BMP280;10526;50.850;12.928;2023-04-12T17:13:34;96395.69;;;10.61
20730;BMP280;10526;50.850;12.928;2023-04-12T17:18:07;96396.25;;;10.56
20730;BMP280;10526;50.850;12.928;2023-04-12T17:22:33;96390.47;;;10.58
20730;BMP280;10526;50.850;12.928;2023-04-12T17:26:55;96380.06;;;10.63
20730;BMP280;10526;50.850;12.928;2023-04-12T17:31:18;96390.72;;;10.63
20730;BMP280;10526;50.850;12.928;2023-04-12T17:35:41;96384.72;;;10.59
20730;BMP280;10526;50.850;12.928;2023-04-12T17:40:06;96375.94;;;10.50
20730;BMP280;10526;50.850;12.928;2023-04-12T17:44:31;96375.56;;;10.38
20730;BMP280;10526;50.850;12.928;2023-04-12T17:48:53;96379.16;;;10.32
20730;BMP280;10526;50.850;12.928;2023-04-12T17:53:16;96371.69;;;10.18
20730;BMP280;10526;50.850;12.928;2023-04-12T17:57:39;96369.34;;;10.07
20730;BMP280;10526;50.850;12.928;2023-04-12T18:02:01;96355.84;;;10.01
20730;BMP280;10526;50.850;12.928;2023-04-12T18:06:23;96362.34;;;10.00
20730;BMP280;10526;50.850;12.928;2023-04-12T18:10:46;96370.00;;;9.98
20730;BMP280;10526;50.850;12.928;2023-04-12T18:15:08;96367.97;;;9.90
20730;BMP280;10526;50.850;12.928;2023-04-12T18:19:31;96372.28;;;9.87
20730;BMP280;10526;50.850;12.928;2023-04-12T18:23:53;96381.38;;;9.99
20730;BMP280;10526;50.850;12.928;2023-04-12T18:28:16;96375.72;;;10.09
20730;BMP280;10526;50.850;12.928;2023-04-12T18:32:39;96367.50;;;10.17
20730;BMP280;10526;50.850;12.928;2023-04-12T18:37:01;96361.91;;;10.15
20730;BMP280;10526;50.850;12.928;2023-04-12T18:41:24;96356.03;;;10.07
20730;BMP280;10526;50.850;12.928;2023-04-12T18:45:46;96368.50;;;9.97
20730;BMP280;10526;50.850;12.928;2023-04-12T18:50:09;96370.13;;;9.95
20730;BMP280;10526;50.850;12.928;2023-04-12T18:54:32;96367.34;;;9.98
20730;BMP280;10526;50.850;12.928;2023-04-12T18:58:54;96360.63;;;10.06
20730;BMP280;10526;50.850;12.928;2023-04-12T19:03:17;96358.72;;;10.07
20730;BMP280;10526;50.850;12.928;2023-04-12T19:07:39;96350.34;;;9.96
20730;BMP280;10526;50.850;12.928;2023-04-12T19:12:02;96328.84;;;9.90
20730;BMP280;10526;50.850;12.928;2023-04-12T19:16:25;96340.25;;;9.91
20730;BMP280;10526;50.850;12.928;2023-04-12T19:20:49;96334.50;;;9.92
20730;BMP280;10526;50.850;12.928;2023-04-12T19:25:11;96320.88;;;9.90
20730;BMP280;10526;50.850;12.928;2023-04-12T19:29:33;96314.06;;;9.89
20730;BMP280;10526;50.850;12.928;2023-04-12T19:33:55;96325.09;;;10.00
20730;BMP280;10526;50.850;12.928;2023-04-12T19:38:18;96326.50;;;10.05
20730;BMP280;10526;50.850;12.928;2023-04-12T19:42:41;96326.69;;;9.98
20730;BMP280;10526;50.850;12.928;2023-04-12T19:47:03;96347.69;;;9.96
20730;BMP280;10526;50.850;12.928;2023-04-12T19:51:25;96344.19;;;9.86
20730;BMP280;10526;50.850;12.928;2023-04-12T19:55:47;96353.75;;;9.83
20730;BMP280;10526;50.850;12.928;2023-04-12T20:00:10;96346.59;;;9.93
20730;BMP280;10526;50.850;12.928;2023-04-12T20:04:43;96349.13;;;10.09
20730;BMP280;10526;50.850;12.928;2023-04-12T20:09:05;96373.66;;;10.26
20730;BMP280;10526;50.850;12.928;2023-04-12T20:13:27;96379.56;;;10.43
20730;BMP280;10526;50.850;12.928;2023-04-12T20:17:51;96384.66;;;10.50
20730;BMP280;10526;50.850;12.928;2023-04-12T20:22:14;96386.47;;;10.53
20730;BMP280;10526;50.850;12.928;2023-04-12T20:26:36;96396.25;;;10.56
20730;BMP280;10526;50.850;12.928;2023-04-12T20:30:58;96396.25;;;10.56
20730;BMP280;10526;50.850;12.928;2023-04-12T20:35:21;96400.09;;;10.55
20730;BMP280;10526;50.850;12.928;2023-04-12T20:39:43;96404.66;;;10.55
20730;BMP280;10526;50.850;12.928;2023-04-12T20:44:05;96401.25;;;10.54
20730;BMP280;10526;50.850;12.928;2023-04-12T20:48:28;96419.88;;;10.54
20730;BMP280;10526;50.850;12.928;2023-04-12T20:52:50;96407.75;;;10.53
20730;BMP280;10526;50.850;12.928;2023-04-12T20:57:13;96385.72;;;10.53
20730;BMP280;10526;50.850;12.928;2023-04-12T21:01:38;96392.78;;;10.47
20730;BMP280;10526;50.850;12.928;2023-04-12T21:06:01;96404.53;;;10.36
20730;BMP280;10526;50.850;12.928;2023-04-12T21:10:24;96413.13;;;10.28
20730;BMP280;10526;50.850;12.928;2023-04-12T21:14:47;96418.69;;;10.21
20730;BMP280;10526;50.850;12.928;2023-04-12T21:19:11;96424.25;;;10.14
20730;BMP280;10526;50.850;12.928;2023-04-12T21:23:33;96407.22;;;9.98
20730;BMP280;10526;50.850;12.928;2023-04-12T21:27:56;96404.44;;;9.89
20730;BMP280;10526;50.850;12.928;2023-04-12T21:32:18;96403.84;;;9.85
20730;BMP280;10526;50.850;12.928;2023-04-12T21:36:40;96391.91;;;9.90
20730;BMP280;10526;50.850;12.928;2023-04-12T21:41:07;96389.25;;;9.90
20730;BMP280;10526;50.850;12.928;2023-04-12T21:45:31;96422.66;;;9.91
20730;BMP280;10526;50.850;12.928;2023-04-12T21:49:53;96411.38;;;9.99
20730;BMP280;10526;50.850;12.928;2023-04-12T21:54:15;96412.44;;;10.02
20730;BMP280;10526;50.850;12.928;2023-04-12T21:58:38;96409.34;;;10.03
20730;BMP280;10526;50.850;12.928;2023-04-12T22:03:00;96423.19;;;9.98
20730;BMP280;10526;50.850;12.928;2023-04-12T22:07:23;96422.53;;;9.94
20730;BMP280;10526;50.850;12.928;2023-04-12T22:11:45;96422.78;;;9.87
20730;BMP280;10526;50.850;12.928;2023-04-12T22:16:10;96421.50;;;9.79
20730;BMP280;10526;50.850;12.928;2023-04-12T22:20:36;96441.16;;;9.69
20730;BMP280;10526;50.850;12.928;2023-04-12T22:24:59;96450.59;;;9.57
20730;BMP280;10526;50.850;12.928;2023-04-12T22:29:23;96444.03;;;9.62
20730;BMP280;10526;50.850;12.928;2023-04-12T22:33:45;96458.38;;;9.64
20730;BMP280;10526;50.850;12.928;2023-04-12T22:38:08;96476.34;;;9.73
20730;BMP280;10526;50.850;12.928;2023-04-12T22:42:30;96471.34;;;9.75
20730;BMP280;10526;50.850;12.928;2023-04-12T22:46:54;96483.13;;;9.74
20730;BMP280;10526;50.850;12.928;2023-04-12T22:51:17;96478.03;;;9.67
20730;BMP280;10526;50.850;12.928;2023-04-12T22:55:39;96480.47;;;9.61
20730;BMP280;10526;50.850;12.928;2023-04-12T23:00:06;96482.81;;;9.59
20730;BMP280;10526;50.850;12.928;2023-04-12T23:04:29;96477.91;;;9.57
20730;BMP280;10526;50.850;12.928;2023-04-12T23:08:51;96478.47;;;9.52
20730;BMP280;10526;50.850;12.928;2023-04-12T23:13:13;96492.56;;;9.49
20730;BMP280;10526;50.850;12.928;2023-04-12T23:17:35;96494.13;;;9.47
20730;BMP280;10526;50.850;12.928;2023-04-12T23:21:57;96494.81;;;9.51
20730;BMP280;10526;50.850;12.928;2023-04-12T23:26:19;96502.78;;;9.51
20730;BMP280;10526;50.850;12.928;2023-04-12T23:30:49;96499.72;;;9.52
20730;BMP280;10526;50.850;12.928;2023-04-12T23:35:11;96503.50;;;9.51
20730;BMP280;10526;50.850;12.928;2023-04-12T23:39:35;96514.56;;;9.50
20730;BMP280;10526;50.850;12.928;2023-04-12T23:43:57;96516.56;;;9.46
20730;BMP280;10526;50.850;12.928;2023-04-12T23:48:20;96512.84;;;9.43
20730;BMP280;10526;50.850;12.928;2023-04-12T23:52:42;96500.81;;;9.39
20730;BMP280;10526;50.850;12.928;2023-04-12T23:57:04;96493.28;;;9.37
